createdAt,value
2018-07-17T00:00:02.717Z,74.69
2018-07-17T00:01:03.024Z,73.93
2018-07-17T00:02:03.295Z,74.69
2018-07-17T00:03:02.895Z,74.22
2018-07-17T00:04:02.957Z,75.95
2018-07-17T00:05:03.017Z,74.31
2018-07-17T00:06:03.076Z,74.06
2018-07-17T00:07:03.137Z,73.58
2018-07-17T00:08:03.196Z,73.83
2018-07-17T00:09:03.258Z,74.51
2018-07-17T00:10:03.321Z,74.41
2018-07-17T00:11:03.379Z,74.89
2018-07-17T00:12:03.439Z,75.46
2018-07-17T00:13:03.499Z,74.89
2018-07-17T00:14:03.562Z,74.89
2018-07-17T00:15:03.622Z,74.79
2018-07-17T00:16:03.681Z,74.69
2018-07-17T00:17:03.741Z,74.60
2018-07-17T00:18:03.801Z,74.12
2018-07-17T00:19:03.861Z,74.69
2018-07-17T00:20:03.921Z,74.79
2018-07-17T00:21:03.985Z,74.89
2018-07-17T00:22:04.044Z,75.27
2018-07-17T00:23:04.103Z,76.81
2018-07-17T00:24:04.163Z,76.29
2018-07-17T00:25:04.223Z,75.62
2018-07-17T00:26:04.283Z,76.67
2018-07-17T00:27:04.343Z,76.29
2018-07-17T00:28:04.405Z,76.19
2018-07-17T00:29:04.464Z,76.48
2018-07-17T00:30:04.524Z,76.57
2018-07-17T00:31:04.584Z,76.48
2018-07-17T00:32:04.649Z,77.44
2018-07-17T00:33:04.705Z,77.73
2018-07-17T00:34:04.764Z,79.83
2018-07-17T00:35:04.828Z,78.20
2018-07-17T00:36:04.886Z,77.73
2018-07-17T00:37:04.946Z,76.48
2018-07-17T00:38:05.005Z,75.81
2018-07-17T00:39:05.067Z,75.90
2018-07-17T00:40:05.125Z,75.90
2018-07-17T00:41:05.186Z,76.00
2018-07-17T00:42:05.251Z,76.86
2018-07-17T00:43:05.305Z,77.44
2018-07-17T00:44:05.371Z,77.63
2018-07-17T00:45:05.427Z,76.96
2018-07-17T00:46:05.487Z,76.44
2018-07-17T00:47:05.546Z,77.21
2018-07-17T00:48:05.608Z,77.50
2018-07-17T00:49:05.666Z,78.36
2018-07-17T00:50:05.727Z,77.73
2018-07-17T00:51:05.787Z,77.06
2018-07-17T00:52:05.846Z,77.63
2018-07-17T00:53:05.907Z,76.64
2018-07-17T00:54:05.966Z,77.59
2018-07-17T00:55:06.026Z,77.53
2018-07-17T00:56:06.086Z,77.59
2018-07-17T00:57:06.147Z,76.44
2018-07-17T00:58:06.206Z,77.59
2018-07-17T00:59:06.266Z,78.17
2018-07-17T01:00:06.327Z,78.07
2018-07-17T01:01:06.403Z,77.59
2018-07-17T01:02:06.446Z,78.64
2018-07-17T01:03:06.507Z,78.27
2018-07-17T01:04:06.571Z,78.55
2018-07-17T01:05:06.627Z,78.17
2018-07-17T01:06:06.685Z,78.55
2018-07-17T01:07:06.753Z,78.55
2018-07-17T01:08:06.805Z,79.70
2018-07-17T01:09:06.867Z,79.03
2018-07-17T01:10:06.925Z,79.41
2018-07-17T01:11:06.985Z,79.51
2018-07-17T01:12:07.046Z,79.32
2018-07-17T01:13:07.107Z,79.70
2018-07-17T01:14:07.164Z,79.95
2018-07-17T01:15:07.225Z,79.13
2018-07-17T01:16:07.284Z,78.64
2018-07-17T01:17:07.345Z,78.55
2018-07-17T01:18:07.405Z,78.17
2018-07-17T01:19:07.466Z,78.07
2018-07-17T01:20:07.524Z,78.17
2018-07-17T01:21:07.584Z,78.32
2018-07-17T01:22:07.643Z,78.42
2018-07-17T01:23:07.703Z,78.70
2018-07-17T01:24:07.765Z,79.08
2018-07-17T01:25:07.822Z,78.89
2018-07-17T01:26:07.934Z,79.13
2018-07-17T01:27:07.944Z,78.61
2018-07-17T01:28:08.001Z,79.18
2018-07-17T01:29:08.064Z,78.32
2018-07-17T01:30:08.120Z,79.08
2018-07-17T01:31:08.181Z,79.18
2018-07-17T01:32:08.492Z,79.18
2018-07-17T01:33:08.301Z,78.64
2018-07-17T01:34:08.360Z,78.70
2018-07-17T01:35:08.420Z,79.41
2018-07-17T01:36:08.481Z,78.89
2018-07-17T01:37:08.539Z,78.51
2018-07-17T01:38:08.599Z,78.42
2018-07-17T01:39:08.659Z,78.51
2018-07-17T01:40:08.719Z,79.08
2018-07-17T01:41:08.778Z,79.28
2018-07-17T01:42:08.837Z,79.95
2018-07-17T01:43:09.019Z,80.04
2018-07-17T01:44:08.956Z,80.24
2018-07-17T01:45:09.017Z,80.14
2018-07-17T01:46:09.076Z,80.04
2018-07-17T01:47:09.135Z,79.66
2018-07-17T01:48:09.195Z,79.66
2018-07-17T01:49:09.255Z,80.24
2018-07-17T01:50:09.313Z,80.71
2018-07-17T01:51:09.380Z,80.62
2018-07-17T01:52:09.434Z,80.04
2018-07-17T01:53:09.495Z,80.04
2018-07-17T01:54:09.553Z,80.48
2018-07-17T01:55:09.613Z,80.52
2018-07-17T01:56:09.673Z,80.71
2018-07-17T01:57:09.733Z,80.62
2018-07-17T01:58:09.793Z,80.90
2018-07-17T01:59:09.851Z,79.66
2018-07-17T02:00:09.911Z,80.24
2018-07-17T02:01:09.972Z,80.67
2018-07-17T02:02:10.030Z,80.81
2018-07-17T02:03:10.090Z,81.29
2018-07-17T02:04:10.150Z,81.10
2018-07-17T02:05:10.210Z,80.52
2018-07-17T02:06:10.268Z,80.71
2018-07-17T02:07:10.329Z,80.24
2018-07-17T02:08:10.387Z,80.24
2018-07-17T02:09:10.448Z,80.90
2018-07-17T02:10:10.506Z,80.48
2018-07-17T02:11:10.567Z,80.58
2018-07-17T02:12:10.659Z,81.05
2018-07-17T02:13:10.686Z,81.54
2018-07-17T02:14:10.744Z,82.59
2018-07-17T02:15:10.805Z,81.63
2018-07-17T02:16:10.865Z,81.63
2018-07-17T02:17:10.927Z,81.44
2018-07-17T02:18:10.983Z,81.96
2018-07-17T02:19:11.043Z,81.10
2018-07-17T02:20:11.102Z,80.71
2018-07-17T02:21:11.162Z,80.81
2018-07-17T02:22:11.221Z,80.71
2018-07-17T02:23:11.285Z,80.62
2018-07-17T02:24:11.340Z,80.52
2018-07-17T02:25:11.399Z,80.52
2018-07-17T02:26:11.458Z,80.71
2018-07-17T02:27:11.518Z,81.05
2018-07-17T02:28:11.578Z,82.01
2018-07-17T02:29:11.639Z,82.20
2018-07-17T02:30:11.698Z,82.59
2018-07-17T02:31:11.757Z,82.49
2018-07-17T02:32:11.817Z,81.82
2018-07-17T02:33:11.877Z,81.54
2018-07-17T02:34:11.935Z,81.73
2018-07-17T02:35:11.994Z,82.59
2018-07-17T02:36:12.057Z,82.78
2018-07-17T02:37:12.115Z,83.36
2018-07-17T02:38:12.172Z,83.36
2018-07-17T02:39:12.234Z,82.40
2018-07-17T02:40:12.296Z,81.92
2018-07-17T02:41:12.350Z,82.30
2018-07-17T02:42:12.412Z,83.45
2018-07-17T02:43:12.470Z,84.46
2018-07-17T02:44:12.530Z,85.22
2018-07-17T02:45:12.590Z,84.08
2018-07-17T02:46:12.648Z,83.54
2018-07-17T02:47:12.708Z,83.26
2018-07-17T02:48:12.774Z,82.93
2018-07-17T02:49:12.828Z,83.12
2018-07-17T02:50:12.886Z,83.83
2018-07-17T02:51:12.947Z,83.31
2018-07-17T02:52:13.005Z,83.83
2018-07-17T02:53:13.065Z,83.45
2018-07-17T02:54:13.124Z,83.73
2018-07-17T02:55:13.183Z,83.36
2018-07-17T02:56:13.245Z,83.16
2018-07-17T02:57:13.302Z,83.64
2018-07-17T02:58:13.361Z,83.54
2018-07-17T02:59:13.421Z,84.22
2018-07-17T03:00:13.481Z,84.50
2018-07-17T03:01:13.540Z,84.22
2018-07-17T03:02:13.599Z,84.22
2018-07-17T03:03:13.659Z,84.31
2018-07-17T03:04:13.717Z,84.27
2018-07-17T03:05:13.777Z,83.98
2018-07-17T03:06:13.836Z,84.88
2018-07-17T03:07:13.949Z,84.59
2018-07-17T03:08:13.955Z,85.13
2018-07-17T03:09:14.015Z,84.17
2018-07-17T03:10:14.073Z,84.75
2018-07-17T03:11:14.132Z,84.55
2018-07-17T03:12:14.194Z,84.75
2018-07-17T03:13:14.250Z,84.98
2018-07-17T03:14:14.310Z,84.88
2018-07-17T03:15:14.368Z,84.50
2018-07-17T03:16:14.429Z,84.98
2018-07-17T03:17:14.489Z,84.41
2018-07-17T03:18:14.549Z,84.12
2018-07-17T03:19:14.757Z,85.13
2018-07-17T03:20:14.667Z,84.84
2018-07-17T03:21:14.725Z,84.84
2018-07-17T03:22:14.784Z,84.31
2018-07-17T03:23:14.844Z,84.22
2018-07-17T03:24:14.905Z,84.41
2018-07-17T03:25:14.964Z,84.88
2018-07-17T03:26:15.022Z,84.55
2018-07-17T03:27:15.082Z,83.98
2018-07-17T03:28:15.141Z,84.94
2018-07-17T03:29:15.200Z,84.84
2018-07-17T03:30:15.262Z,85.22
2018-07-17T03:31:15.320Z,83.98
2018-07-17T03:32:15.378Z,85.22
2018-07-17T03:33:15.437Z,85.22
2018-07-17T03:34:15.494Z,84.84
2018-07-17T03:35:15.555Z,85.61
2018-07-17T03:36:15.615Z,85.61
2018-07-17T03:37:15.677Z,85.80
2018-07-17T03:38:15.734Z,85.51
2018-07-17T03:39:15.793Z,85.61
2018-07-17T03:40:15.852Z,85.41
2018-07-17T03:41:15.911Z,85.03
2018-07-17T03:42:15.970Z,84.65
2018-07-17T03:43:16.029Z,84.84
2018-07-17T03:44:16.091Z,85.71
2018-07-17T03:45:16.149Z,85.51
2018-07-17T03:46:16.209Z,85.32
2018-07-17T03:47:16.267Z,85.71
2018-07-17T03:48:16.326Z,85.51
2018-07-17T03:49:16.386Z,85.61
2018-07-17T03:50:16.445Z,85.51
2018-07-17T03:51:16.504Z,86.28
2018-07-17T03:52:16.563Z,86.18
2018-07-17T03:53:16.624Z,86.37
2018-07-17T03:54:16.932Z,86.37
2018-07-17T03:55:16.741Z,86.47
2018-07-17T03:56:16.803Z,86.66
2018-07-17T03:57:16.860Z,86.08
2018-07-17T03:58:16.920Z,86.85
2018-07-17T03:59:16.981Z,86.47
2018-07-17T04:00:17.037Z,86.47
2018-07-17T04:01:17.097Z,87.43
2018-07-17T04:02:17.155Z,87.43
2018-07-17T04:03:17.215Z,86.37
2018-07-17T04:04:17.310Z,86.57
2018-07-17T04:05:17.335Z,87.04
2018-07-17T04:06:17.394Z,87.33
2018-07-17T04:07:17.455Z,87.43
2018-07-17T04:08:17.512Z,86.28
2018-07-17T04:09:17.571Z,87.04
2018-07-17T04:10:17.631Z,87.23
2018-07-17T04:11:17.689Z,87.52
2018-07-17T04:12:17.757Z,86.76
2018-07-17T04:13:17.871Z,86.37
2018-07-17T04:14:17.867Z,86.28
2018-07-17T04:15:17.926Z,86.47
2018-07-17T04:16:17.985Z,86.37
2018-07-17T04:17:18.045Z,86.47
2018-07-17T04:18:18.104Z,87.04
2018-07-17T04:19:18.164Z,86.61
2018-07-17T04:20:18.223Z,86.37
2018-07-17T04:21:18.286Z,86.51
2018-07-17T04:22:18.343Z,85.46
2018-07-17T04:23:18.401Z,85.84
2018-07-17T04:24:18.466Z,86.57
2018-07-17T04:25:18.519Z,87.23
2018-07-17T04:26:18.578Z,87.33
2018-07-17T04:27:18.637Z,86.94
2018-07-17T04:28:18.698Z,87.23
2018-07-17T04:29:18.777Z,87.23
2018-07-17T04:30:18.816Z,87.18
2018-07-17T04:31:18.875Z,86.85
2018-07-17T04:32:18.935Z,87.62
2018-07-17T04:33:18.996Z,87.71
2018-07-17T04:34:19.053Z,87.23
2018-07-17T04:35:19.113Z,86.51
2018-07-17T04:36:19.172Z,86.85
2018-07-17T04:37:19.233Z,86.37
2018-07-17T04:38:19.318Z,86.85
2018-07-17T04:39:19.603Z,87.71
2018-07-17T04:40:19.410Z,87.43
2018-07-17T04:41:19.469Z,87.23
2018-07-17T04:42:19.526Z,87.23
2018-07-17T04:43:19.612Z,87.08
2018-07-17T04:44:19.758Z,87.33
2018-07-17T04:45:19.706Z,87.33
2018-07-17T04:46:19.765Z,87.04
2018-07-17T04:47:19.830Z,87.23
2018-07-17T04:48:19.884Z,87.14
2018-07-17T04:49:19.944Z,87.76
2018-07-17T04:50:20.003Z,86.99
2018-07-17T04:51:20.061Z,86.41
2018-07-17T04:52:20.122Z,86.41
2018-07-17T04:53:20.181Z,86.51
2018-07-17T04:54:20.239Z,86.70
2018-07-17T04:55:20.300Z,87.14
2018-07-17T04:56:20.358Z,87.52
2018-07-17T04:57:20.417Z,87.90
2018-07-17T04:58:20.476Z,88.13
2018-07-17T04:59:20.981Z,87.08
2018-07-17T05:00:20.597Z,87.23
2018-07-17T05:01:20.656Z,87.47
2018-07-17T05:02:20.716Z,87.66
2018-07-17T05:03:20.774Z,87.27
2018-07-17T05:04:20.833Z,87.27
2018-07-17T05:05:20.893Z,87.18
2018-07-17T05:06:20.951Z,86.99
2018-07-17T05:07:21.011Z,87.08
2018-07-17T05:08:21.074Z,86.41
2018-07-17T05:09:21.130Z,85.84
2018-07-17T05:10:21.188Z,85.65
2018-07-17T05:11:21.247Z,85.50
2018-07-17T05:12:21.309Z,85.65
2018-07-17T05:13:21.370Z,85.75
2018-07-17T05:14:21.426Z,85.79
2018-07-17T05:15:21.490Z,85.31
2018-07-17T05:16:21.563Z,85.60
2018-07-17T05:17:21.606Z,85.50
2018-07-17T05:18:21.666Z,85.41
2018-07-17T05:19:21.748Z,85.02
2018-07-17T05:20:21.808Z,84.92
2018-07-17T05:21:21.853Z,85.41
2018-07-17T05:22:21.902Z,84.68
2018-07-17T05:23:21.962Z,86.02
2018-07-17T05:24:22.022Z,86.60
2018-07-17T05:25:22.082Z,86.50
2018-07-17T05:26:22.140Z,86.79
2018-07-17T05:27:22.201Z,86.50
2018-07-17T05:28:22.260Z,86.60
2018-07-17T05:29:22.324Z,86.50
2018-07-17T05:30:22.380Z,86.60
2018-07-17T05:31:22.440Z,85.64
2018-07-17T05:32:31.390Z,85.68
2018-07-17T05:33:22.561Z,85.68
2018-07-17T05:34:22.619Z,85.68
2018-07-17T05:35:22.701Z,85.88
2018-07-17T05:36:22.740Z,85.58
2018-07-17T05:37:22.800Z,87.41
2018-07-17T05:38:22.859Z,86.93
2018-07-17T05:39:22.921Z,86.45
2018-07-17T05:40:22.980Z,86.54
2018-07-17T05:41:23.041Z,85.68
2018-07-17T05:42:23.100Z,85.97
2018-07-17T05:43:23.161Z,86.64
2018-07-17T05:44:23.222Z,88.98
2018-07-17T05:45:23.282Z,90.23
2018-07-17T05:46:23.370Z,91.19
2018-07-17T05:47:23.403Z,91.48
2018-07-17T05:48:23.463Z,91.48
2018-07-17T05:49:23.523Z,92.15
2018-07-17T05:50:23.584Z,92.72
2018-07-17T05:51:23.644Z,91.96
2018-07-17T05:52:23.705Z,92.15
2018-07-17T05:53:23.786Z,92.00
2018-07-17T05:54:23.825Z,92.19
2018-07-17T05:55:23.886Z,92.19
2018-07-17T05:56:23.964Z,92.15
2018-07-17T05:57:24.011Z,92.15
2018-07-17T05:58:24.072Z,92.82
2018-07-17T05:59:24.465Z,92.82
2018-07-17T06:00:24.190Z,92.19
2018-07-17T06:01:24.249Z,92.19
2018-07-17T06:02:24.311Z,92.29
2018-07-17T06:03:24.387Z,92.68
2018-07-17T06:04:24.432Z,92.10
2018-07-17T06:05:24.493Z,92.77
2018-07-17T06:06:24.554Z,92.96
2018-07-17T06:07:24.615Z,92.77
2018-07-17T06:08:24.676Z,92.86
2018-07-17T06:09:24.741Z,92.58
2018-07-17T06:10:24.905Z,92.63
2018-07-17T06:11:24.859Z,93.01
2018-07-17T06:12:24.924Z,92.63
2018-07-17T06:13:24.986Z,92.53
2018-07-17T06:14:25.043Z,92.72
2018-07-17T06:15:25.106Z,92.33
2018-07-17T06:16:25.166Z,92.24
2018-07-17T06:17:25.227Z,92.33
2018-07-17T06:18:25.286Z,92.05
2018-07-17T06:19:25.366Z,91.66
2018-07-17T06:20:25.410Z,90.90
2018-07-17T06:21:25.471Z,91.13
2018-07-17T06:22:25.532Z,90.94
2018-07-17T06:23:25.594Z,90.37
2018-07-17T06:24:25.654Z,89.89
2018-07-17T06:25:25.717Z,89.89
2018-07-17T06:26:25.777Z,89.79
2018-07-17T06:27:25.839Z,89.50
2018-07-17T06:28:25.902Z,89.31
2018-07-17T06:29:25.963Z,89.50
2018-07-17T06:30:26.023Z,89.12
2018-07-17T06:31:26.085Z,89.12
2018-07-17T06:32:26.146Z,88.73
2018-07-17T06:33:26.206Z,88.39
2018-07-17T06:34:26.268Z,87.43
2018-07-17T06:35:26.330Z,87.15
2018-07-17T06:36:26.390Z,86.76
2018-07-17T06:37:26.453Z,86.66
2018-07-17T06:38:26.516Z,85.61
2018-07-17T06:39:26.575Z,85.51
2018-07-17T06:40:26.638Z,85.51
2018-07-17T06:41:26.699Z,85.55
2018-07-17T06:42:26.759Z,84.78
2018-07-17T06:43:26.822Z,84.40
2018-07-17T06:44:26.894Z,85.07
2018-07-17T06:45:26.946Z,84.78
2018-07-17T06:46:27.007Z,84.11
2018-07-17T06:47:27.068Z,84.44
2018-07-17T06:48:27.131Z,84.40
2018-07-17T06:49:27.192Z,84.98
2018-07-17T06:50:27.348Z,84.73
2018-07-17T06:51:27.319Z,84.63
2018-07-17T06:52:27.379Z,84.06
2018-07-17T06:53:27.441Z,83.39
2018-07-17T06:54:27.503Z,83.39
2018-07-17T06:55:27.564Z,82.56
2018-07-17T06:56:27.627Z,82.46
2018-07-17T06:57:27.712Z,82.56
2018-07-17T06:58:27.751Z,82.46
2018-07-17T06:59:27.813Z,81.40
2018-07-17T07:00:28.127Z,81.88
2018-07-17T07:01:27.938Z,81.60
2018-07-17T07:02:27.999Z,81.30
2018-07-17T07:03:28.062Z,81.70
2018-07-17T07:04:28.127Z,81.02
2018-07-17T07:05:28.189Z,80.63
2018-07-17T07:06:28.248Z,81.06
2018-07-17T07:07:28.312Z,80.96
2018-07-17T07:08:28.374Z,80.48
2018-07-17T07:09:28.437Z,80.29
2018-07-17T07:10:28.499Z,80.19
2018-07-17T07:11:28.563Z,79.52
2018-07-17T07:12:28.624Z,79.71
2018-07-17T07:13:28.687Z,79.61
2018-07-17T07:14:28.749Z,78.94
2018-07-17T07:15:28.813Z,79.23
2018-07-17T07:16:28.875Z,79.52
2018-07-17T07:17:28.939Z,79.43
2018-07-17T07:18:28.999Z,80.23
2018-07-17T07:19:29.063Z,79.66
2018-07-17T07:20:29.126Z,79.36
2018-07-17T07:23:55.019Z,76.80
2018-07-17T07:24:55.080Z,76.23
2018-07-17T07:25:55.143Z,75.74
2018-07-17T07:26:55.207Z,75.49
2018-07-17T07:27:55.270Z,75.40
2018-07-17T07:28:55.333Z,75.20
2018-07-17T07:29:55.396Z,74.33
2018-07-17T07:30:55.504Z,74.33
2018-07-17T07:31:55.522Z,74.27
2018-07-17T07:32:55.586Z,72.92
2018-07-17T07:33:55.654Z,73.31
2018-07-17T07:34:55.713Z,73.21
2018-07-17T07:35:55.790Z,73.11
2018-07-17T07:36:55.840Z,73.41
2018-07-17T07:37:56.264Z,74.27
2018-07-17T07:38:55.968Z,73.11
2018-07-17T07:39:56.031Z,73.21
2018-07-17T07:40:56.095Z,72.92
2018-07-17T07:41:56.162Z,72.38
2018-07-17T07:42:56.324Z,71.70
2018-07-17T07:43:56.289Z,71.22
2018-07-17T07:44:56.350Z,70.64
2018-07-17T07:45:56.417Z,70.48
2018-07-17T07:46:56.483Z,70.58
2018-07-17T07:47:56.546Z,70.06
2018-07-17T07:48:56.608Z,70.29
2018-07-17T07:49:56.672Z,69.42
2018-07-17T07:50:56.736Z,69.62
2018-07-17T07:51:56.801Z,69.62
2018-07-17T07:52:56.865Z,69.71
2018-07-17T07:53:56.930Z,69.71
2018-07-17T07:55:39.480Z,69.81
2018-07-17T07:56:39.503Z,69.07
2018-07-17T07:57:39.960Z,68.10
2018-07-17T07:58:39.632Z,68.10
2018-07-17T07:59:39.697Z,67.91
2018-07-17T08:00:39.762Z,67.46
2018-07-17T08:01:39.826Z,66.30
2018-07-17T08:02:39.893Z,66.14
2018-07-17T08:03:39.967Z,65.72
2018-07-17T08:04:40.057Z,66.75
2018-07-17T08:05:40.088Z,66.78
2018-07-17T08:06:40.161Z,66.30
2018-07-17T08:07:40.218Z,65.66
2018-07-17T08:08:40.284Z,65.56
2018-07-17T08:09:40.349Z,65.27
2018-07-17T08:10:40.416Z,64.34
2018-07-17T08:11:40.525Z,63.46
2018-07-17T08:12:40.547Z,63.56
2018-07-17T08:13:40.613Z,62.59
2018-07-17T08:14:40.683Z,62.24
2018-07-17T08:15:40.743Z,62.04
2018-07-17T08:16:40.809Z,62.14
2018-07-17T08:17:40.877Z,61.36
2018-07-17T08:18:40.942Z,61.66
2018-07-17T08:19:41.009Z,61.18
2018-07-17T08:20:41.077Z,61.95
2018-07-17T08:21:41.143Z,63.21
2018-07-17T08:22:41.209Z,63.11
2018-07-17T08:23:41.274Z,63.76
2018-07-17T08:24:41.360Z,64.24
2018-07-17T08:25:41.407Z,63.76
2018-07-17T08:26:41.474Z,63.56
2018-07-17T08:27:41.558Z,62.50
2018-07-17T08:28:41.606Z,62.14
2018-07-17T08:29:41.719Z,61.85
2018-07-17T08:30:41.739Z,61.27
2018-07-17T08:31:41.805Z,60.78
2018-07-17T08:32:41.871Z,60.50
2018-07-17T08:33:41.939Z,60.69
2018-07-17T08:34:42.005Z,60.69
2018-07-17T08:35:42.085Z,61.36
2018-07-17T08:36:42.137Z,61.21
2018-07-17T08:37:42.204Z,60.98
2018-07-17T08:38:42.271Z,60.88
2018-07-17T08:39:42.336Z,61.46
2018-07-17T08:40:42.402Z,61.27
2018-07-17T08:41:42.469Z,61.36
2018-07-17T08:42:42.535Z,61.08
2018-07-17T08:43:42.686Z,61.36
2018-07-17T08:44:42.668Z,61.27
2018-07-17T08:45:43.239Z,60.62
2018-07-17T08:46:42.800Z,60.72
2018-07-17T08:47:42.865Z,59.75
2018-07-17T08:48:42.932Z,59.30
2018-07-17T08:49:42.997Z,59.39
2018-07-17T08:50:43.065Z,59.13
2018-07-17T08:51:43.129Z,59.71
2018-07-17T08:52:43.196Z,58.77
2018-07-17T08:53:43.262Z,58.16
2018-07-17T08:54:43.357Z,58.48
2018-07-17T08:55:43.393Z,58.48
2018-07-17T08:56:43.459Z,58.09
2018-07-17T08:57:43.525Z,58.00
2018-07-17T08:58:43.590Z,58.00
2018-07-17T08:59:43.656Z,58.09
2018-07-17T09:00:43.723Z,57.61
2018-07-17T09:01:44.039Z,57.03
2018-07-17T09:02:43.857Z,56.83
2018-07-17T09:03:43.920Z,56.35
2018-07-17T09:04:43.987Z,56.83
2018-07-17T09:05:44.053Z,56.93
2018-07-17T09:06:44.120Z,56.83
2018-07-17T09:07:44.185Z,56.74
2018-07-17T09:08:44.255Z,56.67
2018-07-17T09:09:44.320Z,56.76
2018-07-17T09:10:44.386Z,56.67
2018-07-17T09:11:44.454Z,56.47
2018-07-17T09:12:44.516Z,56.30
2018-07-17T09:13:44.583Z,56.30
2018-07-17T09:14:44.654Z,56.40
2018-07-17T09:15:44.717Z,56.01
2018-07-17T09:16:44.782Z,55.17
2018-07-17T09:17:44.849Z,55.07
2018-07-17T09:18:44.916Z,55.17
2018-07-17T09:19:44.981Z,54.68
2018-07-17T09:20:45.050Z,54.58
2018-07-17T09:21:45.114Z,54.22
2018-07-17T09:22:45.180Z,53.06
2018-07-17T09:23:45.247Z,53.74
2018-07-17T09:24:45.314Z,53.16
2018-07-17T09:25:45.382Z,53.54
2018-07-17T09:26:45.453Z,52.96
2018-07-17T09:27:45.514Z,52.57
2018-07-17T09:28:45.582Z,52.09
2018-07-17T09:29:45.647Z,52.11
2018-07-17T09:30:45.714Z,51.82
2018-07-17T09:31:45.780Z,52.01
2018-07-17T09:32:45.847Z,51.26
2018-07-17T09:33:45.945Z,51.36
2018-07-17T09:34:45.983Z,51.36
2018-07-17T09:35:46.048Z,51.36
2018-07-17T09:36:46.114Z,50.09
2018-07-17T09:37:46.181Z,49.99
2018-07-17T09:38:46.248Z,50.19
2018-07-17T09:39:46.314Z,50.12
2018-07-17T09:40:46.382Z,49.83
2018-07-17T09:41:46.449Z,49.24
2018-07-17T09:42:46.517Z,49.34
2018-07-17T09:43:46.585Z,48.95
2018-07-17T09:44:46.650Z,47.80
2018-07-17T09:45:46.718Z,47.80
2018-07-17T09:46:46.785Z,48.19
2018-07-17T09:47:46.853Z,47.32
2018-07-17T09:48:46.919Z,47.13
2018-07-17T09:49:46.986Z,46.08
2018-07-17T09:50:47.053Z,46.08
2018-07-17T09:51:47.121Z,45.59
2018-07-17T09:52:47.190Z,45.59
2018-07-17T09:53:47.255Z,46.20
2018-07-17T09:54:47.323Z,44.34
2018-07-17T09:55:47.394Z,44.64
2018-07-17T09:56:47.458Z,44.83
2018-07-17T09:57:47.528Z,44.54
2018-07-17T09:58:47.593Z,45.03
2018-07-17T09:59:47.659Z,44.64
2018-07-17T10:00:47.727Z,44.07
2018-07-17T10:01:47.795Z,43.39
2018-07-17T10:02:47.862Z,43.29
2018-07-17T10:03:47.930Z,42.93
2018-07-17T10:04:48.022Z,42.14
2018-07-17T10:05:48.065Z,42.05
2018-07-17T10:06:48.133Z,42.05
2018-07-17T10:07:48.200Z,42.05
2018-07-17T10:08:48.269Z,41.75
2018-07-17T10:09:48.336Z,41.56
2018-07-17T10:10:48.405Z,40.88
2018-07-17T10:11:48.473Z,41.09
2018-07-17T10:12:48.542Z,40.89
2018-07-17T10:13:48.614Z,39.65
2018-07-17T10:14:48.680Z,39.57
2018-07-17T10:15:48.748Z,39.28
2018-07-17T10:16:48.817Z,39.20
2018-07-17T10:17:48.888Z,38.51
2018-07-17T10:18:48.960Z,37.65
2018-07-17T10:19:49.083Z,37.47
2018-07-17T10:20:49.100Z,37.26
2018-07-17T10:21:49.172Z,38.32
2018-07-17T10:22:49.243Z,37.43
2018-07-17T10:23:49.316Z,37.43
2018-07-17T10:24:49.386Z,37.91
2018-07-17T10:25:49.458Z,37.91
2018-07-17T10:26:49.563Z,37.01
2018-07-17T10:27:49.606Z,36.94
2018-07-17T10:28:49.677Z,36.10
2018-07-17T10:29:49.751Z,35.14
2018-07-17T10:30:49.826Z,34.38
2018-07-17T10:31:49.898Z,35.44
2018-07-17T10:32:49.974Z,36.02
2018-07-17T10:33:50.047Z,35.29
2018-07-17T10:34:50.121Z,34.25
2018-07-17T10:35:50.195Z,34.03
2018-07-17T10:36:50.269Z,32.79
2018-07-17T10:37:50.345Z,30.82
2018-07-17T10:38:50.424Z,29.93
2018-07-17T10:39:50.493Z,29.66
2018-07-17T10:40:50.568Z,29.09
2018-07-17T10:41:50.645Z,28.78
2018-07-17T10:42:50.720Z,29.91
2018-07-17T10:43:50.794Z,31.54
2018-07-17T10:44:50.870Z,33.07
2018-07-17T10:45:50.946Z,32.81
2018-07-17T10:46:51.022Z,32.25
2018-07-17T10:47:51.098Z,30.62
2018-07-17T10:48:51.171Z,29.28
2018-07-17T10:49:51.247Z,29.27
2018-07-17T10:50:51.322Z,29.93
2018-07-17T10:51:51.396Z,30.05
2018-07-17T10:52:51.472Z,28.52
2018-07-17T10:53:51.548Z,27.92
2018-07-17T10:54:51.625Z,29.53
2018-07-17T10:55:51.699Z,31.38
2018-07-17T10:56:51.774Z,29.96
2018-07-17T10:57:51.851Z,27.09
2018-07-17T10:58:51.926Z,26.70
2018-07-17T10:59:52.001Z,26.69
2018-07-17T11:00:52.113Z,26.59
2018-07-17T11:01:52.152Z,28.44
2018-07-17T11:02:52.232Z,28.92
2018-07-17T11:03:52.304Z,29.59
2018-07-17T11:04:52.380Z,30.07
2018-07-17T11:05:52.456Z,31.13
2018-07-17T11:06:52.533Z,31.13
2018-07-17T11:07:52.606Z,31.23
2018-07-17T11:08:52.681Z,31.70
2018-07-17T11:09:52.756Z,32.07
2018-07-17T11:10:52.832Z,32.75
2018-07-17T11:11:52.906Z,33.14
2018-07-17T11:12:52.978Z,33.12
2018-07-17T11:13:53.052Z,33.59
2018-07-17T11:14:53.125Z,34.38
2018-07-17T11:15:53.198Z,34.57
2018-07-17T11:16:53.271Z,34.86
2018-07-17T11:17:53.594Z,35.82
2018-07-17T11:18:53.416Z,37.09
2018-07-17T11:19:53.487Z,38.04
2018-07-17T11:20:53.559Z,38.42
2018-07-17T11:21:53.629Z,39.10
2018-07-17T11:22:53.700Z,39.59
2018-07-17T11:23:53.774Z,39.59
2018-07-17T11:24:53.893Z,39.59
2018-07-17T11:25:53.932Z,39.12
2018-07-17T11:26:53.985Z,39.31
2018-07-17T11:27:54.056Z,39.78
2018-07-17T11:28:54.127Z,39.39
2018-07-17T11:29:54.196Z,39.69
2018-07-17T11:30:54.265Z,39.78
2018-07-17T11:31:54.413Z,39.80
2018-07-17T11:32:54.403Z,39.69
2018-07-17T11:33:54.475Z,39.78
2018-07-17T11:34:54.544Z,39.31
2018-07-17T11:35:54.613Z,39.31
2018-07-17T11:36:54.682Z,38.65
2018-07-17T11:37:54.751Z,38.35
2018-07-17T11:38:54.819Z,37.41
2018-07-17T11:39:54.889Z,36.18
2018-07-17T11:40:54.959Z,35.14
2018-07-17T11:41:55.028Z,34.10
2018-07-17T11:42:55.098Z,33.04
2018-07-17T11:43:55.165Z,32.45
2018-07-17T11:44:55.236Z,32.04
2018-07-17T11:45:55.307Z,32.63
2018-07-17T11:46:55.377Z,32.06
2018-07-17T11:47:55.491Z,32.82
2018-07-17T11:48:55.518Z,33.67
2018-07-17T11:49:55.590Z,34.26
2018-07-17T11:50:55.661Z,33.28
2018-07-17T11:51:55.731Z,32.63
2018-07-17T11:52:55.803Z,32.25
2018-07-17T11:53:55.878Z,31.77
2018-07-17T11:54:55.946Z,31.67
2018-07-17T11:55:56.023Z,31.76
2018-07-17T11:56:56.090Z,31.10
2018-07-17T11:57:56.162Z,31.32
2018-07-17T11:58:56.325Z,31.71
2018-07-17T11:59:56.307Z,32.76
2018-07-17T12:00:56.379Z,32.84
2018-07-17T12:01:57.095Z,33.22
2018-07-17T12:02:56.531Z,33.59
2018-07-17T12:03:56.597Z,33.67
2018-07-17T12:04:56.671Z,34.24
2018-07-17T12:05:56.816Z,34.54
2018-07-17T12:06:56.815Z,34.34
2018-07-17T12:07:56.890Z,33.87
2018-07-17T12:08:57.268Z,33.95
2018-07-17T12:09:57.030Z,34.64
2018-07-17T12:10:57.103Z,34.62
2018-07-17T12:11:57.174Z,34.81
2018-07-17T12:12:57.285Z,34.81
2018-07-17T12:13:57.318Z,34.42
2018-07-17T12:14:57.390Z,35.28
2018-07-17T12:15:57.460Z,35.75
2018-07-17T12:16:57.533Z,35.75
2018-07-17T12:17:57.601Z,35.27
2018-07-17T12:18:57.674Z,35.46
2018-07-17T12:19:57.923Z,35.46
2018-07-17T12:20:57.814Z,36.05
2018-07-17T12:21:57.886Z,36.34
2018-07-17T12:22:57.957Z,37.01
2018-07-17T12:23:58.027Z,37.21
2018-07-17T12:24:58.173Z,37.22
2018-07-17T12:25:58.166Z,36.91
2018-07-17T12:26:58.237Z,36.91
2018-07-17T12:27:58.352Z,37.89
2018-07-17T12:28:58.383Z,39.70
2018-07-17T12:29:58.447Z,40.78
2018-07-17T12:30:58.518Z,41.73
2018-07-17T12:31:58.588Z,41.71
2018-07-17T12:32:58.657Z,42.79
2018-07-17T12:33:58.726Z,42.96
2018-07-17T12:34:58.832Z,43.25
2018-07-17T12:35:58.865Z,44.23
2018-07-17T12:36:58.933Z,45.59
2018-07-17T12:37:59.004Z,46.08
2018-07-17T12:38:59.074Z,46.27
2018-07-17T12:39:59.142Z,47.92
2018-07-17T12:40:59.210Z,47.83
2018-07-17T12:41:59.282Z,47.83
2018-07-17T12:42:59.347Z,46.73
2018-07-17T12:43:59.415Z,47.15
2018-07-17T12:44:59.482Z,46.27
2018-07-17T12:45:59.553Z,45.61
2018-07-17T12:46:59.621Z,45.22
2018-07-17T12:47:59.692Z,45.22
2018-07-17T12:48:59.758Z,45.03
2018-07-17T12:50:00.009Z,44.83
2018-07-17T12:50:59.894Z,44.54
2018-07-17T12:51:59.964Z,44.73
2018-07-17T12:53:00.036Z,44.73
2018-07-17T12:54:00.101Z,44.54
2018-07-17T12:55:00.170Z,44.64
2018-07-17T12:56:00.238Z,44.73